Time;durP1;ratioP1;P1;durP2;ratioP2;P2;SDS_P1;SDS_P2;PMS_P1;PMS_P2;Temp;Humidity;BMP_temperature;BMP_pressure;BME280_temperature;BME280_humidity;BME280_pressure;Samples;Min_cycle;Max_cycle;Signal;HPM_P1;HPM_P2
2023/01/05 00:01:31;;;;;;;60.22;33.45;;;14.80;61.40;;;;;;4957374;28;20054;-79
2023/01/05 00:03:57;;;;;;;66.32;35.55;;;14.80;61.60;;;;;;4973280;28;20138;-79
2023/01/05 00:06:23;;;;;;;64.03;34.92;;;14.60;61.90;;;;;;4974712;28;20481;-79
2023/01/05 00:08:49;;;;;;;66.82;35.67;;;14.50;62.30;;;;;;4991622;28;20023;-79
2023/01/05 00:22:30;;;;;;;62.03;33.83;;;13.50;64.00;;;;;;4976753;28;20158;-81
2023/01/05 00:25:09;;;;;;;65.68;35.63;;;13.20;64.80;;;;;;4970801;28;20035;-76
2023/01/05 00:27:35;;;;;;;70.05;34.95;;;13.10;66.20;;;;;;4975597;28;20521;-79
2023/01/05 00:30:01;;;;;;;75.65;39.03;;;13.30;65.20;;;;;;4975585;28;20035;-78
2023/01/05 00:32:27;;;;;;;84.03;39.22;;;13.70;64.60;;;;;;4975729;28;20390;-80
2023/01/05 00:34:54;;;;;;;65.22;35.75;;;14.00;63.80;;;;;;4974475;28;20082;-80
2023/01/05 00:37:25;;;;;;;60.67;33.50;;;14.30;62.70;;;;;;4975927;28;20047;-80
2023/01/05 00:39:51;;;;;;;67.85;36.17;;;14.40;62.10;;;;;;4975957;28;20054;-79
2023/01/05 00:42:17;;;;;;;72.32;37.33;;;14.30;63.10;;;;;;4974903;28;20466;-80
2023/01/05 00:44:43;;;;;;;73.25;37.35;;;14.40;63.20;;;;;;4975037;28;20481;-80
2023/01/05 00:47:09;;;;;;;65.18;36.40;;;14.50;62.40;;;;;;4975569;28;20077;-81
2023/01/05 00:49:34;;;;;;;67.80;34.95;;;14.30;62.40;;;;;;4959168;28;20720;-79
2023/01/05 00:52:00;;;;;;;67.95;37.20;;;14.20;62.80;;;;;;4973361;28;20042;-79
2023/01/05 00:54:26;;;;;;;69.72;37.10;;;14.40;62.20;;;;;;4975560;28;20043;-79
2023/01/05 00:56:52;;;;;;;73.38;37.53;;;14.20;63.00;;;;;;4974124;28;20039;-80
2023/01/05 00:59:17;;;;;;;67.50;36.85;;;14.30;62.70;;;;;;4975625;28;20030;-79
2023/01/05 01:01:50;;;;;;;83.88;39.38;;;14.30;63.30;;;;;;4973648;28;20027;-79
2023/01/05 01:04:18;;;;;;;85.90;42.15;;;14.60;63.10;;;;;;4970874;28;20069;-80
2023/01/05 01:06:44;;;;;;;60.83;33.40;;;14.70;61.80;;;;;;4975683;28;20019;-80
2023/01/05 01:09:11;;;;;;;64.50;35.75;;;14.80;61.40;;;;;;4974241;28;20077;-82
2023/01/05 01:11:37;;;;;;;62.15;34.42;;;14.30;62.40;;;;;;4973997;28;20089;-80
2023/01/05 01:14:07;;;;;;;78.10;38.03;;;13.50;65.20;;;;;;4974199;28;20026;-81
2023/01/05 01:16:33;;;;;;;61.90;34.35;;;13.10;66.90;;;;;;4975490;28;20359;-79
2023/01/05 01:18:59;;;;;;;60.65;33.60;;;13.30;65.60;;;;;;4975161;28;20094;-80
2023/01/05 01:21:25;;;;;;;81.88;39.65;;;12.80;67.60;;;;;;4973568;28;20031;-79
2023/01/05 01:23:51;;;;;;;65.40;38.08;;;12.90;68.20;;;;;;4974927;28;20035;-79
2023/01/05 01:26:17;;;;;;;66.43;34.67;;;13.30;66.30;;;;;;4974877;28;20033;-79
2023/01/05 01:28:46;;;;;;;73.40;36.83;;;13.50;65.20;;;;;;4958835;28;20030;-78
2023/01/05 01:31:12;;;;;;;64.55;36.72;;;13.60;65.20;;;;;;4954420;29;20039;-79
2023/01/05 01:33:39;;;;;;;84.57;41.83;;;13.50;65.40;;;;;;4960951;28;20023;-77
2023/01/05 01:36:06;;;;;;;73.35;38.60;;;13.70;65.70;;;;;;4974853;28;20027;-81
2023/01/05 01:38:32;;;;;;;87.57;38.67;;;14.10;64.90;;;;;;4973724;28;20462;-79
2023/01/05 01:40:58;;;;;;;99.60;44.80;;;14.50;63.70;;;;;;4973455;28;20039;-81
2023/01/05 01:43:46;;;;;;;70.40;35.83;;;14.80;63.00;;;;;;4974238;28;20027;-80
2023/01/05 01:46:14;;;;;;;84.22;40.47;;;14.90;62.50;;;;;;4974595;28;20018;-81
2023/01/05 01:48:46;;;;;;;80.13;41.10;;;14.90;62.70;;;;;;4973387;28;20058;-79
2023/01/05 01:51:23;;;;;;;73.32;38.30;;;14.90;62.20;;;;;;4989518;28;20523;-79
2023/01/05 01:53:53;;;;;;;63.42;34.65;;;14.70;62.30;;;;;;4955267;28;20467;-82
2023/01/05 01:56:21;;;;;;;66.15;36.40;;;14.60;62.60;;;;;;4957994;28;20367;-81
2023/01/05 01:58:47;;;;;;;61.10;36.38;;;14.50;63.50;;;;;;4972408;28;20031;-79
2023/01/05 02:01:13;;;;;;;53.65;32.17;;;14.50;62.70;;;;;;4973093;28;20033;-79
2023/01/05 02:03:40;;;;;;;79.88;40.78;;;14.70;62.50;;;;;;4966167;28;20035;-80
2023/01/05 02:06:06;;;;;;;80.95;39.88;;;14.80;62.50;;;;;;4989267;28;20023;-80
2023/01/05 02:08:32;;;;;;;61.72;35.50;;;14.90;62.50;;;;;;4973077;28;20023;-81
2023/01/05 02:11:35;;;;;;;66.80;36.45;;;14.90;61.50;;;;;;4972022;28;20038;-80
2023/01/05 02:14:04;;;;;;;95.68;44.17;;;14.50;63.40;;;;;;4974372;28;20037;-80
2023/01/05 02:16:52;;;;;;;81.57;40.88;;;14.10;64.60;;;;;;4971920;28;20474;-79
2023/01/05 02:19:29;;;;;;;77.38;39.67;;;14.30;64.40;;;;;;4974021;28;20363;-80
2023/01/05 02:22:00;;;;;;;81.30;40.70;;;14.60;62.70;;;;;;4974369;28;20066;-81
2023/01/05 02:24:48;;;;;;;75.05;38.67;;;14.50;63.60;;;;;;4974015;28;20030;-79
2023/01/05 02:27:50;;;;;;;77.97;39.72;;;14.50;63.30;;;;;;4972734;28;20031;-80
2023/01/05 02:30:45;;;;;;;103.68;44.13;;;14.80;62.80;;;;;;4973982;28;20022;-79
2023/01/05 02:33:26;;;;;;;63.53;35.20;;;14.90;62.40;;;;;;4974092;28;20057;-79
2023/01/05 02:35:58;;;;;;;72.18;37.85;;;14.40;63.70;;;;;;4971866;28;20478;-80
2023/01/05 02:38:36;;;;;;;73.05;38.50;;;14.10;64.60;;;;;;4972176;28;20469;-80
2023/01/05 02:41:30;;;;;;;67.95;37.97;;;14.10;64.70;;;;;;4954754;28;20043;-81
2023/01/05 02:43:57;;;;;;;89.57;44.25;;;14.10;64.60;;;;;;4871983;29;20580;-81
2023/01/05 02:46:22;;;;;;;81.97;42.30;;;13.90;65.50;;;;;;4861922;29;20074;-82
2023/01/05 02:48:52;;;;;;;74.28;38.20;;;14.00;65.40;;;;;;4877171;29;20064;-80
2023/01/05 02:51:24;;;;;;;88.63;43.88;;;14.30;65.00;;;;;;4876870;29;20041;-80
2023/01/05 02:54:04;;;;;;;81.22;41.33;;;14.60;63.90;;;;;;4876906;29;20433;-80
2023/01/05 02:56:39;;;;;;;97.43;45.53;;;14.70;63.70;;;;;;4880515;29;20556;-80
2023/01/05 02:59:22;;;;;;;86.43;43.03;;;14.60;63.90;;;;;;4880458;29;20064;-80
2023/01/05 03:02:01;;;;;;;88.65;43.72;;;14.80;63.60;;;;;;4861813;29;20466;-80
2023/01/05 03:04:38;;;;;;;74.80;40.35;;;15.00;63.20;;;;;;4861853;29;20033;-80
2023/01/05 03:07:08;;;;;;;76.10;37.05;;;14.80;63.90;;;;;;4861785;29;20029;-80
2023/01/05 03:09:37;;;;;;;77.50;40.53;;;14.70;63.60;;;;;;4861641;29;20037;-80
2023/01/05 03:15:24;;;;;;;68.75;38.00;;;14.90;63.80;;;;;;4861670;29;20049;-80
2023/01/05 03:17:54;;;;;;;68.63;38.38;;;14.90;63.10;;;;;;4879754;29;20036;-80
2023/01/05 03:20:22;;;;;;;;;;;14.30;64.40;;;;;;4900842;28;20042;-80
2023/01/05 03:36:59;;;;;;;96.25;44.17;;;13.20;69.00;;;;;;4976571;28;20557;-79
2023/01/05 03:39:26;;;;;;;94.95;43.25;;;13.70;68.10;;;;;;4988837;28;20378;-80
2023/01/05 03:41:53;;;;;;;92.38;45.60;;;14.20;65.90;;;;;;4973273;28;20077;-79
2023/01/05 03:44:19;;;;;;;107.95;46.60;;;14.00;66.60;;;;;;4972631;28;20037;-79
2023/01/05 03:46:45;;;;;;;121.10;48.40;;;13.90;66.30;;;;;;4974549;28;20117;-80
2023/01/05 03:49:11;;;;;;;69.50;37.05;;;14.10;65.60;;;;;;4976572;28;20089;-80
2023/01/05 03:51:37;;;;;;;79.38;39.97;;;14.20;64.60;;;;;;4975114;28;20397;-80
2023/01/05 03:54:02;;;;;;;111.75;43.17;;;14.20;64.90;;;;;;4991294;28;20513;-80
2023/01/05 03:56:28;;;;;;;69.55;37.33;;;14.10;64.70;;;;;;4976241;28;20405;-80
2023/01/05 03:58:54;;;;;;;97.93;42.70;;;13.90;66.10;;;;;;4976435;28;20031;-79
2023/01/05 04:01:19;;;;;;;74.80;39.38;;;13.50;66.60;;;;;;4975012;28;20027;-79
2023/01/05 04:03:45;;;;;;;75.53;37.50;;;12.90;68.00;;;;;;4976323;28;20386;-80
2023/01/05 04:06:11;;;;;;;64.85;33.30;;;12.40;71.60;;;;;;4975780;28;20030;-80
2023/01/05 04:08:37;;;;;;;42.95;24.15;;;12.60;70.70;;;;;;4976607;28;20050;-80
2023/01/05 04:11:29;;;;;;;38.42;20.63;;;12.60;73.30;;;;;;4991515;28;20077;-80
2023/01/05 04:13:55;;;;;;;14.48;8.48;;;12.70;73.40;;;;;;4972316;28;20486;-80
2023/01/05 04:16:21;;;;;;;12.85;7.53;;;12.60;75.40;;;;;;4971114;28;20031;-80
2023/01/05 04:18:46;;;;;;;11.73;7.10;;;13.30;73.90;;;;;;4956954;28;20114;-80
2023/01/05 04:21:12;;;;;;;15.45;6.97;;;13.80;73.10;;;;;;4972033;28;20129;-80
2023/01/05 04:23:38;;;;;;;10.50;5.47;;;14.20;71.70;;;;;;4975465;28;20409;-81
2023/01/05 04:26:04;;;;;;;8.38;5.57;;;14.30;71.60;;;;;;4974142;28;20031;-80
2023/01/05 04:28:29;;;;;;;8.68;5.40;;;14.40;72.00;;;;;;4970189;28;20027;-80
2023/01/05 04:30:56;;;;;;;11.02;6.25;;;14.60;70.60;;;;;;4956828;29;20094;-80
2023/01/05 04:33:23;;;;;;;9.55;6.22;;;14.80;70.10;;;;;;4965624;28;20035;-80
2023/01/05 04:35:49;;;;;;;9.65;6.50;;;14.90;69.30;;;;;;4955508;28;20027;-80
2023/01/05 04:38:15;;;;;;;9.77;6.35;;;15.00;68.80;;;;;;4962840;28;20113;-81
2023/01/05 04:40:40;;;;;;;10.43;6.38;;;14.90;69.10;;;;;;4966493;28;20110;-81
2023/01/05 04:43:07;;;;;;;8.20;5.45;;;14.80;70.00;;;;;;4971223;28;20023;-87
2023/01/05 04:45:33;;;;;;;7.72;5.18;;;14.60;69.80;;;;;;4971870;28;20030;-82
2023/01/05 04:47:59;;;;;;;9.73;5.65;;;14.30;70.80;;;;;;4972141;28;20027;-81
2023/01/05 04:50:26;;;;;;;8.57;5.30;;;14.20;71.60;;;;;;4976025;28;20054;-81
2023/01/05 04:53:06;;;;;;;8.65;5.85;;;13.90;72.70;;;;;;4974909;28;20061;-82
2023/01/05 04:55:32;;;;;;;11.80;6.10;;;13.80;72.40;;;;;;4990993;28;20091;-81
2023/01/05 04:57:57;;;;;;;8.73;6.53;;;13.90;72.30;;;;;;4990570;28;20434;-83
2023/01/05 05:00:23;;;;;;;8.90;6.03;;;14.00;71.90;;;;;;4974794;28;20030;-82
2023/01/05 05:02:49;;;;;;;10.98;6.15;;;14.20;70.80;;;;;;4991275;28;20114;-81
2023/01/05 05:05:24;;;;;;;9.43;6.50;;;13.90;71.80;;;;;;4975286;28;20467;-83
2023/01/05 05:08:04;;;;;;;9.20;6.47;;;14.00;71.50;;;;;;4987262;28;20058;-82
2023/01/05 05:11:43;;;;;;;10.23;6.68;;;13.90;71.80;;;;;;4971180;28;20063;-85
2023/01/05 05:14:08;;;;;;;10.38;6.78;;;13.80;71.70;;;;;;4956092;28;20040;-85
2023/01/05 05:16:57;;;;;;;9.23;5.50;;;13.70;71.90;;;;;;4965786;28;20027;-87
2023/01/05 05:19:23;;;;;;;8.60;5.13;;;13.60;72.10;;;;;;4975697;28;20045;-82
2023/01/05 05:21:49;;;;;;;8.75;5.70;;;13.70;72.30;;;;;;4975506;28;20392;-91
2023/01/05 05:24:14;;;;;;;8.80;5.15;;;13.70;71.90;;;;;;4974120;28;20478;-82
2023/01/05 05:26:40;;;;;;;7.10;4.55;;;13.80;71.60;;;;;;4974505;28;20498;-81
2023/01/05 05:29:06;;;;;;;8.88;4.30;;;13.90;71.00;;;;;;4975592;28;20542;-81
2023/01/05 05:31:31;;;;;;;5.82;3.85;;;14.20;70.50;;;;;;4990690;28;20039;-87
2023/01/05 05:34:09;;;;;;;6.10;4.50;;;14.20;70.50;;;;;;4990524;28;20025;-83
2023/01/05 05:36:59;;;;;;;8.18;4.70;;;14.20;70.00;;;;;;4974044;28;20422;-88
2023/01/05 05:39:34;;;;;;;6.10;4.03;;;14.10;70.00;;;;;;4974648;28;20069;-83
2023/01/05 05:42:03;;;;;;;6.35;4.28;;;14.10;70.10;;;;;;4973683;28;20056;-81
2023/01/05 05:44:28;;;;;;;6.18;4.10;;;14.20;70.10;;;;;;4973312;28;20031;-80
2023/01/05 05:46:54;;;;;;;6.97;4.35;;;14.40;69.20;;;;;;4973647;28;20034;-85
2023/01/05 05:49:20;;;;;;;7.15;3.90;;;14.40;68.70;;;;;;4973379;28;20070;-82
2023/01/05 05:51:45;;;;;;;7.13;4.03;;;14.30;68.80;;;;;;4974682;28;20122;-80
2023/01/05 05:54:11;;;;;;;6.53;4.30;;;14.40;69.30;;;;;;4989509;28;20486;-81
2023/01/05 05:56:36;;;;;;;7.10;4.50;;;14.50;68.40;;;;;;4973284;28;20062;-86
2023/01/05 05:59:02;;;;;;;7.00;4.32;;;14.50;68.60;;;;;;4974744;28;20065;-83
2023/01/05 06:01:28;;;;;;;5.65;3.78;;;14.30;69.10;;;;;;4973250;28;20037;-79
2023/01/05 06:03:54;;;;;;;8.43;4.28;;;14.50;68.70;;;;;;4973448;28;20027;-79
2023/01/05 06:06:20;;;;;;;6.15;3.60;;;14.80;67.80;;;;;;4974023;28;20027;-81
2023/01/05 06:08:46;;;;;;;7.18;4.03;;;14.60;67.90;;;;;;4973784;28;20097;-82
2023/01/05 06:11:12;;;;;;;6.28;4.25;;;14.60;68.80;;;;;;4959067;28;20109;-80
2023/01/05 06:16:36;;;;;;;7.00;4.10;;;15.20;66.90;;;;;;4972095;28;20054;-82
2023/01/05 06:19:11;;;;;;;6.93;3.78;;;15.00;66.50;;;;;;4976506;28;20030;-82
2023/01/05 06:21:37;;;;;;;6.18;3.40;;;15.00;66.70;;;;;;4989373;28;20027;-81
2023/01/05 06:24:09;;;;;;;5.68;3.50;;;15.00;66.50;;;;;;4973268;28;20050;-83
2023/01/05 06:26:35;;;;;;;6.88;4.50;;;15.00;66.50;;;;;;4973823;28;20088;-80
2023/01/05 06:29:01;;;;;;;7.60;4.70;;;15.20;66.40;;;;;;4976765;28;20042;-81
2023/01/05 06:31:26;;;;;;;6.70;4.10;;;15.60;65.60;;;;;;4978292;28;20027;-80
2023/01/05 06:33:52;;;;;;;6.35;3.67;;;15.80;64.50;;;;;;4958312;28;20418;-84
2023/01/05 06:36:20;;;;;;;5.03;3.63;;;15.50;64.40;;;;;;4958048;28;20034;-88
2023/01/05 06:38:46;;;;;;;5.30;3.17;;;15.40;65.10;;;;;;4973824;28;20118;-81
2023/01/05 06:41:11;;;;;;;7.18;3.53;;;15.70;64.90;;;;;;4957371;28;20130;-80
2023/01/05 06:43:37;;;;;;;5.07;3.10;;;16.00;63.90;;;;;;4958997;28;20054;-85
2023/01/05 06:46:03;;;;;;;5.93;3.38;;;16.10;63.60;;;;;;4973891;28;20031;-80
2023/01/05 06:48:29;;;;;;;5.45;3.47;;;16.10;63.50;;;;;;4973333;28;20110;-80
2023/01/05 06:50:55;;;;;;;6.32;3.63;;;16.10;63.70;;;;;;4978136;28;20026;-79
2023/01/05 06:53:21;;;;;;;6.93;3.80;;;16.40;63.20;;;;;;4976483;28;20049;-80
2023/01/05 06:55:50;;;;;;;6.28;4.13;;;16.50;62.10;;;;;;4972507;28;20485;-80
2023/01/05 06:58:15;;;;;;;7.15;4.18;;;16.60;62.40;;;;;;4981427;28;20030;-81
2023/01/05 07:00:41;;;;;;;5.80;4.10;;;16.60;62.00;;;;;;4977715;28;20038;-80
2023/01/05 07:03:07;;;;;;;8.75;5.05;;;16.60;62.40;;;;;;4977406;28;20054;-81
2023/01/05 07:05:32;;;;;;;5.68;3.72;;;16.80;61.60;;;;;;4977661;28;20026;-81
2023/01/05 07:07:58;;;;;;;7.28;4.50;;;16.90;61.50;;;;;;4966550;28;20027;-79
2023/01/05 07:10:24;;;;;;;6.13;4.00;;;17.00;61.10;;;;;;4958084;28;20522;-80
2023/01/05 07:12:49;;;;;;;9.50;5.00;;;16.90;61.30;;;;;;4956443;28;20042;-80
2023/01/05 07:15:15;;;;;;;5.03;3.50;;;16.90;61.50;;;;;;4965086;28;20033;-81
2023/01/05 07:17:41;;;;;;;7.60;4.43;;;16.90;60.90;;;;;;4976318;28;20435;-80
2023/01/05 07:20:07;;;;;;;7.13;3.25;;;16.80;61.50;;;;;;4992596;28;20484;-79
2023/01/05 07:22:33;;;;;;;6.38;3.42;;;16.70;61.70;;;;;;4975941;28;20027;-79
2023/01/05 07:24:59;;;;;;;5.28;2.60;;;16.70;62.20;;;;;;4972946;28;20066;-82
2023/01/05 07:27:25;;;;;;;5.40;3.00;;;16.80;61.60;;;;;;4959831;28;20110;-80
2023/01/05 07:29:50;;;;;;;5.00;2.85;;;17.00;61.60;;;;;;4964589;28;20027;-79
2023/01/05 07:32:16;;;;;;;5.57;2.70;;;17.10;61.70;;;;;;4961352;28;20038;-80
2023/01/05 07:34:42;;;;;;;4.47;2.80;;;17.30;61.50;;;;;;4982614;28;20114;-80
2023/01/05 07:37:07;;;;;;;4.90;2.60;;;17.70;61.00;;;;;;4989741;28;20022;-79
2023/01/05 07:39:33;;;;;;;4.32;2.85;;;17.90;60.20;;;;;;4971783;28;20023;-80
2023/01/05 07:41:59;;;;;;;4.63;2.83;;;17.90;60.00;;;;;;4968417;28;20034;-79
2023/01/05 07:44:24;;;;;;;4.30;2.58;;;18.00;59.90;;;;;;4973630;28;20027;-81
2023/01/05 07:46:50;;;;;;;5.25;2.67;;;17.90;59.60;;;;;;4962359;28;20046;-80
2023/01/05 07:49:16;;;;;;;5.43;3.42;;;17.90;60.00;;;;;;4955954;28;20049;-80
2023/01/05 07:51:41;;;;;;;4.05;2.88;;;18.00;60.10;;;;;;4956865;28;20039;-80
2023/01/05 07:54:07;;;;;;;5.75;2.58;;;18.10;59.90;;;;;;4961185;28;20047;-80
2023/01/05 07:56:33;;;;;;;6.55;2.53;;;18.20;59.80;;;;;;4974313;28;20023;-80
2023/01/05 07:58:58;;;;;;;4.53;2.58;;;18.30;59.50;;;;;;4971901;28;20030;-80
2023/01/05 08:01:24;;;;;;;4.28;2.70;;;18.10;59.90;;;;;;4987892;28;20039;-81
2023/01/05 08:03:52;;;;;;;3.50;2.22;;;18.40;59.30;;;;;;4962613;28;20031;-80
2023/01/05 08:06:19;;;;;;;3.95;2.50;;;18.00;58.80;;;;;;4959447;28;20035;-80
2023/01/05 08:08:45;;;;;;;5.90;2.67;;;17.80;60.90;;;;;;4969190;28;20029;-81
2023/01/05 08:11:15;;;;;;;3.85;2.60;;;18.00;60.50;;;;;;4969505;28;20073;-79
2023/01/05 08:16:31;;;;;;;3.75;2.47;;;17.80;60.20;;;;;;4959931;28;20082;-81
2023/01/05 08:18:58;;;;;;;6.57;3.08;;;17.10;62.30;;;;;;4983043;28;20053;-80
2023/01/05 08:21:23;;;;;;;5.63;2.90;;;17.10;62.30;;;;;;4972473;28;20035;-79
2023/01/05 08:23:51;;;;;;;4.68;3.10;;;16.80;63.10;;;;;;4971097;28;20101;-79
2023/01/05 08:26:19;;;;;;;6.63;3.60;;;16.80;63.10;;;;;;4966399;28;20045;-79
2023/01/05 08:28:45;;;;;;;7.28;3.25;;;17.10;62.70;;;;;;4972579;28;20027;-78
2023/01/05 08:31:13;;;;;;;4.57;2.70;;;17.30;62.10;;;;;;4961975;28;20051;-79
2023/01/05 08:33:39;;;;;;;4.53;2.10;;;17.40;62.10;;;;;;4961312;28;20381;-81
2023/01/05 08:36:11;;;;;;;3.55;2.20;;;17.50;61.30;;;;;;4968408;28;20501;-79
2023/01/05 08:38:37;;;;;;;3.42;2.20;;;17.80;60.60;;;;;;4977831;23;20057;-80
2023/01/05 08:41:03;;;;;;;4.15;2.10;;;17.90;60.10;;;;;;4986557;28;20027;-80
2023/01/05 08:43:29;;;;;;;5.38;2.10;;;18.30;60.10;;;;;;4976125;28;20027;-83
2023/01/05 08:45:55;;;;;;;3.50;1.90;;;18.20;59.40;;;;;;4993238;28;20473;-81
2023/01/05 08:48:20;;;;;;;4.10;1.90;;;18.40;59.60;;;;;;4995223;28;20023;-80
2023/01/05 08:50:46;;;;;;;2.97;1.80;;;18.30;59.40;;;;;;4994380;28;20038;-82
2023/01/05 08:53:15;;;;;;;3.17;1.90;;;18.30;59.40;;;;;;5001920;28;20563;-79
2023/01/05 08:55:55;;;;;;;3.72;2.03;;;18.20;59.60;;;;;;4986595;28;20046;-83
2023/01/05 08:58:51;;;;;;;3.78;2.05;;;18.00;60.10;;;;;;4994093;28;20026;-80
2023/01/05 09:01:18;;;;;;;4.88;3.10;;;17.70;60.70;;;;;;4961498;28;20090;-78
2023/01/05 09:03:56;;;;;;;4.40;2.65;;;18.00;60.60;;;;;;4994259;28;20761;-83
2023/01/05 09:06:22;;;;;;;4.78;2.75;;;18.10;59.80;;;;;;4992887;28;20057;-78
2023/01/05 09:08:47;;;;;;;3.30;2.10;;;18.50;59.50;;;;;;4994598;28;20130;-78
2023/01/05 09:11:15;;;;;;;4.13;2.30;;;18.50;59.10;;;;;;4993412;28;20030;-79
2023/01/05 09:13:47;;;;;;;6.55;2.13;;;18.70;58.90;;;;;;4991225;28;20082;-88
2023/01/05 09:16:17;;;;;;;4.35;2.40;;;18.80;58.40;;;;;;4982097;28;20026;-81
2023/01/05 09:18:43;;;;;;;7.28;2.53;;;18.80;58.50;;;;;;4983485;28;20508;-79
2023/01/05 09:21:10;;;;;;;3.80;2.40;;;18.50;60.00;;;;;;4987549;28;20545;-84
2023/01/05 09:23:37;;;;;;;6.43;3.30;;;18.10;62.20;;;;;;4975209;28;20551;-80
2023/01/05 09:26:04;;;;;;;4.30;3.17;;;17.40;64.70;;;;;;4970306;28;20034;-79
2023/01/05 09:28:35;;;;;;;4.22;2.35;;;17.60;64.40;;;;;;4631935;28;9999946;-80
2023/01/05 09:31:06;;;;;;;3.97;2.50;;;17.50;64.40;;;;;;4972079;28;20497;-81
2023/01/05 09:33:32;;;;;;;3.97;2.20;;;17.40;63.90;;;;;;4987220;28;20042;-82
2023/01/05 09:35:58;;;;;;;3.95;2.30;;;17.00;64.70;;;;;;4972004;28;20026;-80
2023/01/05 09:38:23;;;;;;;6.32;2.83;;;17.30;64.70;;;;;;4987071;28;20085;-82
2023/01/05 09:40:52;;;;;;;8.98;3.00;;;16.90;66.00;;;;;;4987110;28;20038;-80
2023/01/05 09:43:29;;;;;;;5.43;3.00;;;16.40;67.50;;;;;;4971938;28;20122;-84
2023/01/05 09:45:56;;;;;;;3.65;2.33;;;15.70;69.70;;;;;;4981035;28;20498;-79
2023/01/05 09:48:25;;;;;;;8.02;4.72;;;15.30;72.20;;;;;;4969225;28;20486;-81
2023/01/05 09:50:52;;;;;;;16.83;10.90;;;15.40;71.80;;;;;;4975148;28;20151;-83
2023/01/05 09:53:27;;;;;;;7.07;5.82;;;14.60;73.40;;;;;;4974528;28;20019;-83
2023/01/05 09:55:57;;;;;;;7.57;6.45;;;14.30;75.00;;;;;;4973794;28;20030;-83
2023/01/05 09:58:32;;;;;;;25.02;18.33;;;14.30;75.30;;;;;;4973344;28;20027;-86
2023/01/05 10:01:19;;;;;;;6.50;3.50;;;14.10;75.30;;;;;;4976067;28;20027;-86
2023/01/05 10:03:51;;;;;;;6.93;3.90;;;14.30;76.20;;;;;;4975274;28;20042;-85
2023/01/05 10:06:17;;;;;;;5.68;3.42;;;14.60;75.40;;;;;;4973302;28;20554;-85
2023/01/05 10:08:50;;;;;;;9.38;4.90;;;14.70;74.70;;;;;;4973214;28;20059;-83
2023/01/05 10:14:18;;;;;;;6.35;4.15;;;15.70;72.30;;;;;;4973755;28;20046;-81
2023/01/05 10:16:45;;;;;;;6.70;4.28;;;15.80;71.30;;;;;;4972969;28;20418;-81
2023/01/05 10:19:17;;;;;;;6.03;3.70;;;15.60;70.80;;;;;;4971631;28;20097;-81
2023/01/05 10:22:23;;;;;;;7.30;4.60;;;15.90;71.10;;;;;;4972265;28;20466;-81
2023/01/05 10:24:58;;;;;;;7.13;5.20;;;16.10;70.20;;;;;;4953551;28;20125;-89
2023/01/05 10:27:38;;;;;;;6.45;4.93;;;16.10;70.30;;;;;;4972235;28;20098;-81
2023/01/05 10:30:22;;;;;;;10.23;5.30;;;16.20;69.80;;;;;;4973091;28;20054;-82
2023/01/05 10:32:58;;;;;;;7.70;5.07;;;16.30;69.00;;;;;;4972577;28;20078;-82
2023/01/05 10:35:52;;;;;;;6.75;4.85;;;16.40;68.90;;;;;;4974258;28;20113;-81
2023/01/05 10:38:39;;;;;;;8.68;5.78;;;16.40;69.40;;;;;;4973415;28;20069;-81
2023/01/05 10:41:23;;;;;;;7.57;5.00;;;16.50;69.00;;;;;;4974565;28;20101;-81
2023/01/05 10:44:12;;;;;;;8.60;4.53;;;16.50;68.80;;;;;;4974521;28;20089;-81
2023/01/05 10:46:41;;;;;;;8.00;4.07;;;16.20;69.40;;;;;;4989584;28;20023;-81
2023/01/05 10:49:07;;;;;;;6.43;4.03;;;16.10;70.20;;;;;;4973893;28;20026;-82
2023/01/05 10:51:35;;;;;;;6.40;4.05;;;16.00;70.10;;;;;;4974288;28;20033;-82
2023/01/05 10:54:02;;;;;;;10.85;7.78;;;15.90;70.80;;;;;;4974775;28;20022;-82
2023/01/05 10:56:28;;;;;;;5.68;4.20;;;16.00;71.10;;;;;;4989583;28;20027;-82
2023/01/05 10:59:11;;;;;;;6.95;5.07;;;16.20;71.00;;;;;;4989643;28;20027;-89
2023/01/05 11:01:41;;;;;;;7.38;6.35;;;16.30;69.90;;;;;;4974233;28;20030;-82
2023/01/05 11:04:14;;;;;;;7.78;4.07;;;16.50;69.70;;;;;;4973104;28;20090;-83
2023/01/05 11:06:40;;;;;;;6.07;4.00;;;16.40;69.60;;;;;;4973349;28;20038;-81
2023/01/05 11:09:12;;;;;;;5.63;2.72;;;16.40;70.20;;;;;;4974350;28;20421;-85
2023/01/05 11:11:38;;;;;;;6.35;2.90;;;16.10;69.40;;;;;;4973877;28;20698;-82
2023/01/05 11:14:05;;;;;;;5.05;2.67;;;15.80;71.60;;;;;;4989961;28;20031;-82
2023/01/05 11:16:34;;;;;;;4.25;2.83;;;15.70;71.40;;;;;;4992339;28;20097;-81
2023/01/05 11:19:34;;;;;;;3.88;2.30;;;15.80;71.40;;;;;;4993893;28;20126;-82
2023/01/05 11:25:38;;;;;;;5.78;2.50;;;16.20;69.50;;;;;;5057981;23;20145;-82
2023/01/05 11:28:13;;;;;;;5.18;2.42;;;15.90;70.30;;;;;;4956284;29;20031;-81
2023/01/05 11:31:05;;;;;;;6.43;2.90;;;15.90;70.40;;;;;;4956111;29;20043;-81
2023/01/05 11:33:34;;;;;;;5.25;2.45;;;16.00;70.30;;;;;;4969434;28;20035;-82
2023/01/05 11:36:03;;;;;;;5.10;2.65;;;16.10;70.60;;;;;;4956798;29;20090;-83
2023/01/05 11:38:30;;;;;;;6.22;3.25;;;16.00;69.20;;;;;;4956323;29;20059;-82
2023/01/05 11:40:58;;;;;;;4.72;3.50;;;15.90;70.20;;;;;;4956044;29;20058;-82
2023/01/05 11:43:27;;;;;;;5.13;3.35;;;16.00;70.20;;;;;;4956340;28;20044;-82
2023/01/05 11:45:56;;;;;;;4.47;3.03;;;15.90;69.80;;;;;;4956273;29;20390;-82
2023/01/05 11:48:26;;;;;;;4.63;2.80;;;16.10;69.90;;;;;;3922971;28;10000680;-85
2023/01/05 11:50:55;;;;;;;5.43;3.03;;;16.50;69.20;;;;;;4956005;29;20126;-83
2023/01/05 11:53:32;;;;;;;6.53;3.85;;;16.70;67.70;;;;;;4956164;29;20046;-83
2023/01/05 11:56:17;;;;;;;5.60;3.22;;;16.60;68.20;;;;;;4955911;29;20038;-85
2023/01/05 11:58:44;;;;;;;4.50;2.88;;;16.30;67.60;;;;;;4970123;28;20070;-81
2023/01/05 12:01:34;;;;;;;5.18;3.40;;;16.30;68.00;;;;;;4996420;28;20037;-82
2023/01/05 12:04:03;;;;;;;6.67;3.73;;;16.50;67.10;;;;;;4995348;28;20030;-84
2023/01/05 12:06:56;;;;;;;5.28;3.30;;;16.20;68.10;;;;;;4995235;28;20038;-85
2023/01/05 12:09:51;;;;;;;5.68;3.00;;;16.00;68.50;;;;;;4995264;28;20030;-83
2023/01/05 12:12:19;;;;;;;5.43;3.25;;;16.00;68.40;;;;;;4994314;28;20046;-87
2023/01/05 12:15:01;;;;;;;8.25;3.42;;;16.00;68.80;;;;;;4995651;28;20086;-87
2023/01/05 12:17:56;;;;;;;7.50;3.90;;;15.90;68.70;;;;;;4996339;28;20022;-81
2023/01/05 12:20:46;;;;;;;6.72;3.70;;;15.80;69.60;;;;;;4955860;28;20027;-85
2023/01/05 12:23:40;;;;;;;5.83;4.00;;;15.50;69.90;;;;;;4955919;29;20401;-87
2023/01/05 12:26:20;;;;;;;6.65;4.55;;;15.00;72.10;;;;;;4938631;29;20062;-81
2023/01/05 12:29:14;;;;;;;9.30;4.90;;;15.20;72.00;;;;;;4939341;28;20388;-83
2023/01/05 12:31:50;;;;;;;7.75;5.47;;;15.50;71.60;;;;;;4939206;29;20043;-85
2023/01/05 12:34:33;;;;;;;9.00;5.50;;;15.50;71.90;;;;;;4955545;29;20067;-83
2023/01/05 12:37:23;;;;;;;8.15;4.85;;;15.30;71.80;;;;;;4955462;28;20032;-82
2023/01/05 12:40:30;;;;;;;6.72;4.00;;;15.20;73.00;;;;;;4921180;29;20459;-83
2023/01/05 12:43:08;;;;;;;7.13;4.40;;;15.40;72.00;;;;;;4919564;29;20126;-83
2023/01/05 12:45:53;;;;;;;6.88;4.68;;;15.70;71.00;;;;;;4936083;29;20036;-82
2023/01/05 12:48:29;;;;;;;6.55;3.72;;;15.90;70.40;;;;;;4935985;29;20395;-82
2023/01/05 12:51:05;;;;;;;6.28;3.90;;;15.70;70.00;;;;;;4935894;29;20051;-84
2023/01/05 12:53:36;;;;;;;5.93;3.70;;;15.70;69.60;;;;;;4935921;29;20036;-82
2023/01/05 12:56:13;;;;;;;7.85;4.20;;;15.40;70.00;;;;;;4935746;29;20031;-84
2023/01/05 12:58:44;;;;;;;7.20;3.95;;;15.10;70.80;;;;;;4974710;28;20031;-82
2023/01/05 13:01:20;;;;;;;8.20;4.05;;;15.40;70.50;;;;;;4990989;28;20037;-82
2023/01/05 13:04:03;;;;;;;7.78;4.88;;;15.30;70.70;;;;;;4975906;28;20025;-82
2023/01/05 13:06:36;;;;;;;8.23;5.45;;;15.40;70.30;;;;;;4990901;28;20046;-84
2023/01/05 13:09:08;;;;;;;8.48;4.20;;;15.70;69.90;;;;;;4990870;28;20027;-82
2023/01/05 13:11:39;;;;;;;8.43;4.30;;;16.00;68.90;;;;;;4975637;28;20089;-82
2023/01/05 13:14:21;;;;;;;7.03;4.13;;;16.00;68.70;;;;;;4990985;28;20110;-81
2023/01/05 13:17:15;;;;;;;7.50;4.25;;;15.80;69.30;;;;;;4990884;28;20033;-88
2023/01/05 13:19:49;;;;;;;6.80;4.00;;;15.80;68.80;;;;;;4990716;28;20023;-82
2023/01/05 13:22:30;;;;;;;6.65;4.05;;;15.50;70.50;;;;;;4990755;28;20022;-86
2023/01/05 13:25:12;;;;;;;9.18;4.50;;;15.80;68.90;;;;;;4975189;28;20134;-84
2023/01/05 13:27:40;;;;;;;6.63;3.88;;;15.70;69.50;;;;;;4974353;28;20114;-85
2023/01/05 13:30:11;;;;;;;5.68;3.90;;;15.80;69.50;;;;;;4990319;28;20081;-82
2023/01/05 13:33:05;;;;;;;8.27;3.78;;;15.60;69.00;;;;;;4990261;28;20039;-87
2023/01/05 13:36:27;;;;;;;6.57;4.10;;;15.40;69.80;;;;;;4990172;28;20041;-88
2023/01/05 13:39:30;;;;;;;7.30;3.67;;;15.30;69.70;;;;;;4973010;28;20106;-83
2023/01/05 13:42:45;;;;;;;8.73;5.38;;;15.20;70.60;;;;;;4974990;28;20030;-82
2023/01/05 13:45:48;;;;;;;9.23;4.30;;;15.60;69.20;;;;;;4975421;28;20382;-83